»·PEaware :: N755ME 49X-L52

N755ME :: 49X-L52

FLIGHT INFORMATION

Flight Status: Arrived
Operator: Privately registered:
United States
More flights under this callsign
Pilot: Michael D. (15839)
Aircraft: BEECH AIRCRAFT DEBONAIR BONANZA
(BE33)
More flights by this aircraft type
Origin: 49X Chemehuevi Valley
United States
Destination: L52 Oceano Co
United States
More flights between these airports :: More routes between these airports
Route: EED V12 GVO V27
File this flight plan on PilotEdge
Remarks:
Altitude:
(Current/Filed)
10,000ft
Speed:
(Current/Filed)
140kts
Departed: 01-Jul-19 07:55 PM
Arrived: 01-Jul-19 09:21 PM
Distance/Time
Traveled:
307nm/1:25
Distance/Time
To Go:
Arrived

Flight Plot

Page will automatically refresh every two minutes.

Flight plan parsing failed; only flown route is shown


Map Options




Map Legend


Flown Route
Filed Route
Departure Airport
Arrival Airport
Navaid (VOR, NDB)
Fix

Horizontal Profiles

Position Reports

Time Latitude Longitude Heading Altitude Ground
Speed
01-Jul-19 19:45 34.529427 -114.430281 180 621ft 0kts
01-Jul-19 19:46 34.529427 -114.430281 180 621ft 0kts
01-Jul-19 19:47 34.529427 -114.430281 180 621ft 0kts
01-Jul-19 19:48 34.529427 -114.430281 180 621ft 0kts
01-Jul-19 19:49 34.529427 -114.430281 180 621ft 0kts
01-Jul-19 19:50 34.529128 -114.430556 224 621ft 5kts
01-Jul-19 19:51 34.526135 -114.430980 180 622ft 17kts
01-Jul-19 19:52 34.522093 -114.431178 240 623ft 0kts
01-Jul-19 19:53 34.522038 -114.431579 269 623ft 7kts
01-Jul-19 19:54 34.537391 -114.429582 8 999ft 84kts
01-Jul-19 19:55 34.564503 -114.434746 338 1655ft 107kts
01-Jul-19 19:56 34.595436 -114.442115 347 2362ft 118kts
01-Jul-19 19:57 34.628368 -114.448186 346 3060ft 121kts
01-Jul-19 19:58 34.661492 -114.454351 346 3752ft 120kts
01-Jul-19 19:59 34.693968 -114.460444 345 4439ft 116kts
01-Jul-19 20:00 34.725403 -114.466404 345 5127ft 113kts
01-Jul-19 20:01 34.755732 -114.473240 320 5812ft 104kts
01-Jul-19 20:02 34.765024 -114.502067 281 6499ft 88kts
01-Jul-19 20:03 34.768988 -114.528941 271 7155ft 71kts
01-Jul-19 20:04 34.773801 -114.552726 278 7551ft 74kts
01-Jul-19 20:05 34.774782 -114.577619 266 7960ft 74kts
01-Jul-19 20:06 34.775308 -114.602800 269 8365ft 75kts
01-Jul-19 20:07 34.789234 -114.611693 26 8590ft 103kts
01-Jul-19 20:08 34.796242 -114.629706 230 9017ft 85kts
01-Jul-19 20:09 34.788806 -114.657659 256 9422ft 89kts
01-Jul-19 20:10 34.785164 -114.688031 262 9832ft 92kts
01-Jul-19 20:11 34.783712 -114.722504 266 10000ft 119kts
01-Jul-19 20:12 34.784166 -114.767349 270 9995ft 142kts
01-Jul-19 20:13 34.785742 -114.809924 271 9992ft 149kts
01-Jul-19 20:14 34.788226 -114.861059 271 9991ft 152kts
01-Jul-19 20:15 34.790664 -114.906788 272 9991ft 153kts
01-Jul-19 20:16 34.792338 -114.953280 263 9993ft 152kts
01-Jul-19 20:17 34.790637 -115.004915 268 9990ft 152kts
01-Jul-19 20:18 34.791267 -115.056141 271 9990ft 151kts
01-Jul-19 20:19 34.792779 -115.107129 273 9990ft 151kts
01-Jul-19 20:20 34.794645 -115.158473 274 9990ft 151kts
01-Jul-19 20:22 34.796650 -115.210094 275 9990ft 153kts
01-Jul-19 20:23 34.798459 -115.261119 265 9984ft 155kts
01-Jul-19 20:24 34.779316 -115.308880 252 9990ft 157kts
01-Jul-19 20:25 34.769784 -115.360428 264 9990ft 156kts
01-Jul-19 20:26 34.780175 -115.409555 287 9990ft 153kts
01-Jul-19 20:27 34.784410 -115.461475 277 10000ft 154kts
01-Jul-19 20:28 34.786053 -115.513324 274 10037ft 153kts
01-Jul-19 20:29 34.787469 -115.565158 274 10075ft 153kts
01-Jul-19 20:30 34.788890 -115.617075 274 10113ft 153kts
01-Jul-19 20:31 34.790314 -115.669008 273 10150ft 153kts
01-Jul-19 20:32 34.791533 -115.721173 272 10164ft 155kts
01-Jul-19 20:33 34.792262 -115.773829 272 10164ft 155kts
01-Jul-19 20:34 34.793000 -115.826381 273 10164ft 156kts
01-Jul-19 20:35 34.793760 -115.879194 273 10164ft 156kts
01-Jul-19 20:36 34.794526 -115.932040 273 10164ft 156kts
01-Jul-19 20:37 34.795297 -115.984820 273 10164ft 156kts
01-Jul-19 20:38 34.796078 -116.037518 273 10164ft 156kts
01-Jul-19 20:38 34.796739 -116.081594 273 10164ft 156kts
01-Jul-19 20:40 34.797153 -116.130070 272 10164ft 156kts
01-Jul-19 20:41 34.797201 -116.182978 272 10161ft 156kts
01-Jul-19 20:42 34.797213 -116.234187 272 10151ft 156kts
01-Jul-19 20:43 34.797161 -116.287232 272 10141ft 156kts
01-Jul-19 20:43 34.797110 -116.314267 272 10136ft 156kts
01-Jul-19 20:45 34.796935 -116.376191 272 10124ft 156kts
01-Jul-19 20:45 34.796762 -116.420463 272 10118ft 156kts
01-Jul-19 20:46 34.793539 -116.473170 262 10116ft 157kts
01-Jul-19 20:48 34.786719 -116.534473 266 10118ft 157kts
01-Jul-19 20:48 34.782733 -116.578627 266 10118ft 157kts
01-Jul-19 20:49 34.778133 -116.629672 266 10118ft 157kts
01-Jul-19 20:50 34.773392 -116.682421 266 10118ft 157kts
01-Jul-19 20:51 34.768641 -116.735361 266 10118ft 157kts
01-Jul-19 20:52 34.763904 -116.788243 266 10118ft 157kts
01-Jul-19 20:53 34.754443 -116.894014 266 10119ft 157kts
01-Jul-19 20:54 34.731296 -117.148412 265 10215ft 149kts
01-Jul-19 20:55 34.685848 -117.542211 262 10214ft 145kts
01-Jul-19 20:56 34.645093 -117.931540 262 10195ft 144kts
01-Jul-19 20:57 34.619930 -118.321097 264 10212ft 143kts
01-Jul-19 20:58 34.591952 -118.702132 263 10219ft 144kts
01-Jul-19 20:59 34.560219 -119.094497 263 10168ft 147kts
01-Jul-19 21:00 34.528878 -119.495204 264 10148ft 150kts
01-Jul-19 21:01 34.510993 -119.900939 272 10168ft 151kts
01-Jul-19 21:02 34.558080 -120.198881 309 10233ft 150kts
01-Jul-19 21:03 34.591065 -120.232108 326 9985ft 164kts
01-Jul-19 21:04 34.631171 -120.262264 326 9496ft 172kts
01-Jul-19 21:05 34.672122 -120.293021 326 8997ft 173kts
01-Jul-19 21:06 34.714610 -120.324854 326 8119ft 186kts
01-Jul-19 21:07 34.758659 -120.357867 326 7230ft 184kts
01-Jul-19 21:08 34.801917 -120.390284 326 6425ft 182kts
01-Jul-19 21:09 34.842720 -120.425590 322 5664ft 179kts
01-Jul-19 21:10 34.882625 -120.461764 322 5019ft 178kts
01-Jul-19 21:11 34.921906 -120.498015 322 4486ft 177kts
01-Jul-19 21:12 34.962544 -120.531533 326 4005ft 174kts
01-Jul-19 21:13 35.002185 -120.560798 333 3347ft 159kts
01-Jul-19 21:14 35.037268 -120.584482 326 2304ft 127kts
01-Jul-19 21:15 35.065695 -120.606264 329 1569ft 116kts
01-Jul-19 21:16 35.091694 -120.623718 297 835ft 95kts
01-Jul-19 21:17 35.100322 -120.633728 53 273ft 77kts
01-Jul-19 21:18 35.106957 -120.627625 291 433ft 65kts
01-Jul-19 21:19 35.101846 -120.622784 126 53ft 84kts
01-Jul-19 21:20 35.099387 -120.618524 126 17ft 0kts
01-Jul-19 21:21 35.099387 -120.618524 126 17ft 0kts
01-Jul-19 21:22 35.099387 -120.618524 126 17ft 0kts
01-Jul-19 21:23 35.099387 -120.618524 126 17ft 0kts

Navigation Log

Ident Type
Flight plan parsing failed, navigation log unavailable